Time;durP1;ratioP1;P1;durP2;ratioP2;P2;SDS_P1;SDS_P2;PMS_P1;PMS_P2;Temp;Humidity;BMP_temperature;BMP_pressure;BME280_temperature;BME280_humidity;BME280_pressure;Samples;Min_cycle;Max_cycle;Signal;HPM_P1;HPM_P2
2021/08/15 00:00:49;;;;;;;17.10;8.48;;;;;;;;;;5044462;28;20037;-78
2021/08/15 00:03:16;;;;;;;19.75;9.60;;;;;;;;;;5046154;28;20091;-78
2021/08/15 00:05:42;;;;;;;18.23;8.18;;;;;;;;;;5042191;28;20482;-78
2021/08/15 00:08:08;;;;;;;21.33;8.77;;;;;;;;;;5072020;28;20183;-78
2021/08/15 00:10:35;;;;;;;24.40;9.85;;;;;;;;;;5041724;28;20049;-78
2021/08/15 00:13:01;;;;;;;20.25;9.02;;;;;;;;;;5048797;28;20037;-77
2021/08/15 00:15:28;;;;;;;20.85;8.85;;;;;;;;;;5046262;28;20366;-78
2021/08/15 00:17:54;;;;;;;16.85;9.02;;;;;;;;;;5045823;28;20382;-78
2021/08/15 00:20:20;;;;;;;18.80;8.77;;;;;;;;;;5043571;28;20048;-78
2021/08/15 00:22:47;;;;;;;17.70;9.55;;;;;;;;;;5043685;28;20480;-77
2021/08/15 00:25:14;;;;;;;20.92;9.23;;;;;;;;;;5042281;28;20048;-78
2021/08/15 00:27:40;;;;;;;19.50;9.43;;;;;;;;;;5045578;28;20068;-78
2021/08/15 00:30:07;;;;;;;21.10;9.98;;;;;;;;;;5048194;28;20086;-78
2021/08/15 00:32:34;;;;;;;20.45;9.95;;;;;;;;;;5051107;28;20068;-78
2021/08/15 00:35:02;;;;;;;18.70;9.57;;;;;;;;;;5050342;28;20397;-78
2021/08/15 00:37:29;;;;;;;21.80;10.13;;;;;;;;;;5051405;28;20069;-78
2021/08/15 00:39:55;;;;;;;20.90;9.18;;;;;;;;;;5048967;28;20220;-77
2021/08/15 00:42:21;;;;;;;19.73;10.60;;;;;;;;;;5048209;28;20033;-78
2021/08/15 00:44:47;;;;;;;19.42;10.32;;;;;;;;;;5048284;28;20477;-78
2021/08/15 00:47:14;;;;;;;18.13;9.30;;;;;;;;;;5049457;28;20059;-78
2021/08/15 00:49:40;;;;;;;19.38;9.05;;;;;;;;;;5046936;28;20052;-78
2021/08/15 00:52:07;;;;;;;19.08;9.18;;;;;;;;;;5045660;28;20412;-78
2021/08/15 00:54:35;;;;;;;21.70;10.05;;;;;;;;;;5043531;28;20052;-78
2021/08/15 00:57:01;;;;;;;24.40;9.93;;;;;;;;;;5041168;28;20073;-78
2021/08/15 00:59:28;;;;;;;22.17;10.10;;;;;;;;;;5041363;28;20148;-78
2021/08/15 01:01:55;;;;;;;20.33;9.30;;;;;;;;;;5042100;28;20041;-78
2021/08/15 01:04:22;;;;;;;18.38;9.50;;;;;;;;;;5044480;28;20049;-78
2021/08/15 01:06:50;;;;;;;16.95;9.75;;;;;;;;;;5075827;28;20113;-78
2021/08/15 01:09:16;;;;;;;17.42;8.90;;;;;;;;;;5045273;28;20421;-78
2021/08/15 01:11:42;;;;;;;18.95;9.75;;;;;;;;;;5047543;28;20043;-78
2021/08/15 01:14:09;;;;;;;22.33;9.60;;;;;;;;;;5077402;28;20053;-78
2021/08/15 01:16:40;;;;;;;15.80;9.05;;;;;;;;;;5046746;28;20041;-78
2021/08/15 01:19:07;;;;;;;17.48;8.50;;;;;;;;;;5048150;28;20484;-78
2021/08/15 01:21:33;;;;;;;18.83;8.32;;;;;;;;;;5047937;28;20048;-77
2021/08/15 01:23:59;;;;;;;22.42;9.20;;;;;;;;;;5048638;28;20048;-78
2021/08/15 01:26:26;;;;;;;20.10;9.90;;;;;;;;;;5049199;28;20041;-78
2021/08/15 01:28:52;;;;;;;16.88;7.88;;;;;;;;;;5049975;28;20060;-78
2021/08/15 01:31:19;;;;;;;21.45;10.18;;;;;;;;;;5048178;28;20534;-78
2021/08/15 01:33:46;;;;;;;15.00;8.57;;;;;;;;;;5049806;28;21115;-77
2021/08/15 01:36:14;;;;;;;15.75;8.30;;;;;;;;;;5047575;28;20124;-78
2021/08/15 01:38:40;;;;;;;14.95;8.50;;;;;;;;;;5047604;28;20046;-78
2021/08/15 01:41:07;;;;;;;15.75;9.65;;;;;;;;;;5048670;28;20047;-78
2021/08/15 01:43:46;;;;;;;16.20;8.48;;;;;;;;;;5049381;28;20128;-78
2021/08/15 01:46:12;;;;;;;20.17;9.35;;;;;;;;;;5053163;28;20093;-78
2021/08/15 01:48:39;;;;;;;16.83;9.25;;;;;;;;;;5049973;28;20048;-78
2021/08/15 01:51:05;;;;;;;17.75;8.57;;;;;;;;;;5048358;28;20365;-78
2021/08/15 01:53:31;;;;;;;20.00;9.50;;;;;;;;;;5039022;28;20041;-78
2021/08/15 01:55:58;;;;;;;18.10;9.25;;;;;;;;;;5042377;28;20044;-78
2021/08/15 01:58:24;;;;;;;19.95;9.52;;;;;;;;;;5040621;28;20045;-78
2021/08/15 02:00:50;;;;;;;19.70;9.00;;;;;;;;;;5040654;28;20033;-77
2021/08/15 02:03:17;;;;;;;18.23;8.68;;;;;;;;;;5053066;28;20068;-78
2021/08/15 02:05:43;;;;;;;15.23;9.35;;;;;;;;;;5051138;28;20080;-78
2021/08/15 02:08:10;;;;;;;21.90;8.77;;;;;;;;;;5045809;28;20037;-78
2021/08/15 02:10:37;;;;;;;19.10;8.93;;;;;;;;;;5046602;28;20041;-78
2021/08/15 02:13:04;;;;;;;16.50;9.00;;;;;;;;;;5051726;28;20110;-78
2021/08/15 02:15:31;;;;;;;15.93;8.82;;;;;;;;;;5051470;28;20045;-78
2021/08/15 02:18:00;;;;;;;21.77;8.52;;;;;;;;;;5051833;28;20044;-78
2021/08/15 02:20:27;;;;;;;20.00;9.20;;;;;;;;;;5049868;28;20056;-77
2021/08/15 02:22:53;;;;;;;16.83;8.82;;;;;;;;;;5045306;28;20037;-77
2021/08/15 02:25:20;;;;;;;16.10;9.45;;;;;;;;;;5038352;28;20068;-78
2021/08/15 02:27:47;;;;;;;14.23;8.20;;;;;;;;;;5041035;28;20041;-77
2021/08/15 02:30:14;;;;;;;16.42;8.90;;;;;;;;;;5047131;28;20136;-78
2021/08/15 02:32:41;;;;;;;18.70;9.15;;;;;;;;;;5041003;28;20449;-78
2021/08/15 02:35:09;;;;;;;20.27;8.82;;;;;;;;;;5047438;28;20087;-78
2021/08/15 02:37:37;;;;;;;16.92;9.00;;;;;;;;;;5046084;28;20136;-77
2021/08/15 02:40:05;;;;;;;15.70;8.50;;;;;;;;;;5043294;28;20049;-77
2021/08/15 02:42:33;;;;;;;18.13;9.73;;;;;;;;;;5040322;28;20113;-78
2021/08/15 02:44:59;;;;;;;16.52;8.40;;;;;;;;;;5040937;28;20045;-78
2021/08/15 02:47:26;;;;;;;18.15;8.88;;;;;;;;;;5042961;28;20037;-78
2021/08/15 02:49:52;;;;;;;17.90;8.85;;;;;;;;;;5039859;28;20111;-78
2021/08/15 02:52:19;;;;;;;16.60;9.50;;;;;;;;;;5043008;28;20049;-78
2021/08/15 02:54:46;;;;;;;19.20;9.18;;;;;;;;;;5047189;28;20116;-78
2021/08/15 02:57:12;;;;;;;18.33;8.43;;;;;;;;;;5042830;28;20107;-78
2021/08/15 02:59:39;;;;;;;18.70;9.60;;;;;;;;;;5041696;28;20416;-78
2021/08/15 03:02:07;;;;;;;16.67;9.20;;;;;;;;;;5047266;28;20053;-78
2021/08/15 03:04:34;;;;;;;22.85;9.23;;;;;;;;;;5046124;28;20045;-78
2021/08/15 03:07:00;;;;;;;17.92;7.85;;;;;;;;;;5044239;28;20150;-77
2021/08/15 03:09:27;;;;;;;17.15;7.25;;;;;;;;;;5045155;28;20039;-78
2021/08/15 03:11:53;;;;;;;9.85;5.28;;;;;;;;;;5044209;28;20132;-77
2021/08/15 03:14:19;;;;;;;15.18;5.25;;;;;;;;;;5044102;28;20048;-78
2021/08/15 03:16:47;;;;;;;17.85;5.68;;;;;;;;;;5048609;28;20036;-78
2021/08/15 03:19:14;;;;;;;17.42;5.72;;;;;;;;;;5048509;28;20044;-78
2021/08/15 03:21:41;;;;;;;17.70;5.53;;;;;;;;;;5048076;28;20036;-77
2021/08/15 03:24:07;;;;;;;18.75;5.25;;;;;;;;;;5048135;28;20049;-78
2021/08/15 03:26:43;;;;;;;13.05;4.88;;;;;;;;;;5047747;28;20466;-77
2021/08/15 03:29:11;;;;;;;12.48;4.95;;;;;;;;;;5045734;28;20060;-78
2021/08/15 03:31:37;;;;;;;14.55;5.15;;;;;;;;;;5043200;28;20119;-78
2021/08/15 03:34:03;;;;;;;16.80;4.90;;;;;;;;;;5048756;28;20521;-77
2021/08/15 03:36:30;;;;;;;15.10;5.28;;;;;;;;;;5052037;28;20463;-78
2021/08/15 03:38:56;;;;;;;12.32;4.90;;;;;;;;;;5049360;28;20048;-78
2021/08/15 03:41:23;;;;;;;13.70;4.93;;;;;;;;;;5050293;28;20438;-78
2021/08/15 03:43:49;;;;;;;17.63;4.93;;;;;;;;;;5048322;28;20048;-77
2021/08/15 03:46:15;;;;;;;12.38;4.82;;;;;;;;;;5046202;28;20045;-78
2021/08/15 03:48:42;;;;;;;12.88;5.55;;;;;;;;;;5047488;28;20048;-78
2021/08/15 03:51:08;;;;;;;15.48;5.78;;;;;;;;;;5035127;28;20037;-78
2021/08/15 03:53:35;;;;;;;16.48;5.53;;;;;;;;;;5051366;28;20059;-77
2021/08/15 03:56:01;;;;;;;16.02;5.72;;;;;;;;;;5050049;28;20043;-78
2021/08/15 03:58:28;;;;;;;14.73;6.03;;;;;;;;;;5028444;28;20072;-78
2021/08/15 04:00:55;;;;;;;14.18;6.03;;;;;;;;;;5052302;28;20490;-78
2021/08/15 04:03:21;;;;;;;12.82;4.88;;;;;;;;;;5058166;28;20044;-77
2021/08/15 04:05:48;;;;;;;15.75;5.15;;;;;;;;;;5055763;28;20035;-78
2021/08/15 04:08:14;;;;;;;14.85;4.95;;;;;;;;;;5059602;28;20060;-78
2021/08/15 04:10:40;;;;;;;9.57;4.75;;;;;;;;;;5052679;28;20385;-78
2021/08/15 04:13:07;;;;;;;10.88;5.43;;;;;;;;;;5042920;28;20048;-78
2021/08/15 04:15:33;;;;;;;12.20;5.38;;;;;;;;;;5047627;28;20044;-78
2021/08/15 04:17:59;;;;;;;13.95;5.72;;;;;;;;;;5054104;28;20032;-78
2021/08/15 04:20:26;;;;;;;13.73;4.95;;;;;;;;;;5051744;28;20450;-78
2021/08/15 04:22:52;;;;;;;11.02;4.88;;;;;;;;;;5050785;28;20045;-78
2021/08/15 04:25:18;;;;;;;14.43;5.07;;;;;;;;;;5050363;28;20067;-78
2021/08/15 04:27:45;;;;;;;14.90;5.22;;;;;;;;;;5051021;28;20041;-78
2021/08/15 04:30:12;;;;;;;16.42;5.63;;;;;;;;;;5049251;28;20041;-78
2021/08/15 04:32:38;;;;;;;13.27;5.70;;;;;;;;;;5053410;28;20485;-78
2021/08/15 04:35:05;;;;;;;11.27;4.93;;;;;;;;;;5048334;28;20052;-78
2021/08/15 04:37:32;;;;;;;12.00;5.03;;;;;;;;;;5048059;28;20068;-77
2021/08/15 04:39:58;;;;;;;14.30;5.72;;;;;;;;;;5047827;28;20136;-78
2021/08/15 04:42:24;;;;;;;12.55;5.03;;;;;;;;;;5043134;28;20037;-78
2021/08/15 04:44:55;;;;;;;12.38;5.50;;;;;;;;;;5048387;28;20072;-78
2021/08/15 04:47:22;;;;;;;11.52;5.03;;;;;;;;;;5053343;28;20045;-77
2021/08/15 04:49:54;;;;;;;13.32;5.88;;;;;;;;;;5048739;28;20144;-78
2021/08/15 04:52:20;;;;;;;13.88;5.70;;;;;;;;;;5049326;28;20128;-78
2021/08/15 04:54:46;;;;;;;17.42;5.97;;;;;;;;;;5049939;28;20094;-78
2021/08/15 04:57:13;;;;;;;12.85;5.75;;;;;;;;;;5044582;28;20366;-78
2021/08/15 04:59:39;;;;;;;18.27;6.20;;;;;;;;;;5048602;28;20045;-77
2021/08/15 05:02:06;;;;;;;9.85;5.80;;;;;;;;;;5052559;28;20041;-77
2021/08/15 05:04:33;;;;;;;12.30;5.47;;;;;;;;;;5045855;28;20049;-77
2021/08/15 05:07:02;;;;;;;16.95;5.22;;;;;;;;;;5037981;28;20460;-77
2021/08/15 05:09:30;;;;;;;16.55;5.80;;;;;;;;;;5049328;28;20049;-78
2021/08/15 05:11:57;;;;;;;11.23;5.03;;;;;;;;;;5058017;28;20064;-78
2021/08/15 05:14:23;;;;;;;14.98;5.22;;;;;;;;;;5060728;28;20346;-78
2021/08/15 05:16:49;;;;;;;10.73;4.90;;;;;;;;;;5052795;28;20036;-78
2021/08/15 05:19:15;;;;;;;16.67;5.40;;;;;;;;;;5051892;28;20124;-77
2021/08/15 05:21:42;;;;;;;14.20;5.43;;;;;;;;;;5042618;28;20041;-78
2021/08/15 05:24:08;;;;;;;11.65;5.30;;;;;;;;;;5048566;28;20044;-78
2021/08/15 05:26:37;;;;;;;12.85;5.18;;;;;;;;;;5063111;28;20037;-78
2021/08/15 05:29:03;;;;;;;12.23;4.78;;;;;;;;;;5058706;28;20048;-77
2021/08/15 05:31:30;;;;;;;12.15;4.60;;;;;;;;;;5060900;28;20037;-78
2021/08/15 05:33:57;;;;;;;12.18;4.60;;;;;;;;;;5053593;28;20068;-77
2021/08/15 05:36:24;;;;;;;17.63;6.32;;;;;;;;;;5048173;28;20473;-78
2021/08/15 05:38:51;;;;;;;14.10;5.57;;;;;;;;;;5040047;28;20041;-77
2021/08/15 05:41:18;;;;;;;13.55;5.57;;;;;;;;;;5045709;28;20099;-77
2021/08/15 05:43:44;;;;;;;14.05;5.07;;;;;;;;;;5051702;28;20070;-77
2021/08/15 05:46:11;;;;;;;14.73;5.40;;;;;;;;;;5056479;28;20041;-77
2021/08/15 05:48:37;;;;;;;12.27;4.32;;;;;;;;;;5052775;28;20456;-78
2021/08/15 05:51:05;;;;;;;13.15;5.35;;;;;;;;;;5052956;28;20029;-78
2021/08/15 05:53:31;;;;;;;13.80;5.80;;;;;;;;;;5044385;28;20045;-77
2021/08/15 05:55:58;;;;;;;11.30;5.35;;;;;;;;;;5037840;28;20170;-78
2021/08/15 05:58:24;;;;;;;11.60;5.63;;;;;;;;;;5042662;28;20485;-77
2021/08/15 06:00:50;;;;;;;11.38;5.15;;;;;;;;;;5053720;28;20101;-78
2021/08/15 06:03:17;;;;;;;12.20;4.97;;;;;;;;;;5061128;28;20052;-77
2021/08/15 06:05:43;;;;;;;14.20;4.63;;;;;;;;;;5050301;28;20401;-78
2021/08/15 06:08:09;;;;;;;9.88;5.10;;;;;;;;;;5051792;28;20436;-79
2021/08/15 06:10:38;;;;;;;13.15;4.90;;;;;;;;;;5052743;28;20056;-77
2021/08/15 06:13:04;;;;;;;12.30;5.07;;;;;;;;;;5042975;28;20060;-77
2021/08/15 06:15:31;;;;;;;14.65;5.95;;;;;;;;;;5045937;28;20120;-78
2021/08/15 06:17:57;;;;;;;16.63;5.70;;;;;;;;;;5042298;28;20040;-74
2021/08/15 06:20:23;;;;;;;16.55;5.57;;;;;;;;;;5045696;28;20290;-74
2021/08/15 06:22:50;;;;;;;12.85;5.65;;;;;;;;;;5054688;28;20484;-74
2021/08/15 06:25:16;;;;;;;10.48;5.85;;;;;;;;;;5025883;28;20053;-75
2021/08/15 06:27:44;;;;;;;12.73;5.15;;;;;;;;;;5049388;28;20066;-74
2021/08/15 06:30:12;;;;;;;12.77;5.15;;;;;;;;;;5034170;28;20044;-74
2021/08/15 06:32:53;;;;;;;16.35;5.03;;;;;;;;;;5041093;28;20061;-74
2021/08/15 06:35:21;;;;;;;13.75;5.18;;;;;;;;;;5044447;28;20056;-74
2021/08/15 06:37:48;;;;;;;10.90;4.65;;;;;;;;;;5051168;28;20053;-74
2021/08/15 06:40:15;;;;;;;11.13;5.28;;;;;;;;;;5050406;28;20176;-74
2021/08/15 06:42:42;;;;;;;14.68;5.72;;;;;;;;;;5050746;28;20122;-74
2021/08/15 06:45:09;;;;;;;12.45;6.07;;;;;;;;;;5027836;28;20040;-73
2021/08/15 06:47:36;;;;;;;12.90;5.10;;;;;;;;;;5049738;28;20043;-74
2021/08/15 06:50:02;;;;;;;11.70;5.15;;;;;;;;;;5051698;28;20491;-74
2021/08/15 06:52:29;;;;;;;16.70;6.13;;;;;;;;;;5048508;28;20076;-74
2021/08/15 06:54:56;;;;;;;14.32;6.35;;;;;;;;;;5047878;28;20501;-74
2021/08/15 06:57:23;;;;;;;14.32;6.60;;;;;;;;;;5048909;28;20068;-74
2021/08/15 06:59:49;;;;;;;19.27;7.57;;;;;;;;;;5049395;28;20048;-74
2021/08/15 07:02:15;;;;;;;16.27;6.90;;;;;;;;;;5049579;28;20068;-74
2021/08/15 07:04:41;;;;;;;18.20;7.18;;;;;;;;;;5045937;28;20473;-74
2021/08/15 07:07:08;;;;;;;14.23;6.32;;;;;;;;;;5047533;28;20037;-74
2021/08/15 07:09:34;;;;;;;13.63;6.75;;;;;;;;;;5060103;28;20408;-74
2021/08/15 07:12:00;;;;;;;14.77;6.53;;;;;;;;;;5044850;28;20103;-76
2021/08/15 07:14:28;;;;;;;12.50;7.47;;;;;;;;;;5042172;28;20100;-76
2021/08/15 07:16:56;;;;;;;14.60;7.43;;;;;;;;;;5046370;28;20040;-76
2021/08/15 07:19:23;;;;;;;19.55;7.50;;;;;;;;;;5050490;28;20497;-76
2021/08/15 07:21:49;;;;;;;22.00;8.30;;;;;;;;;;5049325;28;20068;-76
2021/08/15 07:24:16;;;;;;;15.38;8.13;;;;;;;;;;5044732;28;20067;-76
2021/08/15 07:26:42;;;;;;;19.80;9.38;;;;;;;;;;5041398;28;20108;-76
2021/08/15 07:29:08;;;;;;;16.63;8.18;;;;;;;;;;5045890;28;20111;-76
2021/08/15 07:31:35;;;;;;;14.30;9.00;;;;;;;;;;5048724;28;20045;-76
2021/08/15 07:34:01;;;;;;;16.30;7.28;;;;;;;;;;5047377;28;20033;-76
2021/08/15 07:36:28;;;;;;;15.88;8.40;;;;;;;;;;5045520;28;20145;-76
2021/08/15 07:38:54;;;;;;;13.30;7.38;;;;;;;;;;5052719;28;20136;-76
2021/08/15 07:41:21;;;;;;;14.95;8.43;;;;;;;;;;5050955;28;20127;-76
2021/08/15 07:43:48;;;;;;;14.65;8.85;;;;;;;;;;5046634;28;20052;-76
2021/08/15 07:46:14;;;;;;;16.58;8.02;;;;;;;;;;5052572;28;20065;-76
2021/08/15 07:48:41;;;;;;;15.10;7.93;;;;;;;;;;5044796;28;20045;-76
2021/08/15 07:51:07;;;;;;;14.23;7.50;;;;;;;;;;5044837;28;20114;-76
2021/08/15 07:53:33;;;;;;;16.40;7.72;;;;;;;;;;5040976;28;20382;-76
2021/08/15 07:56:00;;;;;;;15.48;7.38;;;;;;;;;;5040726;28;20077;-76
2021/08/15 07:58:26;;;;;;;14.48;7.15;;;;;;;;;;5041921;28;20037;-76
2021/08/15 08:00:53;;;;;;;14.05;6.47;;;;;;;;;;5044648;28;20132;-76
2021/08/15 08:03:20;;;;;;;12.98;7.15;;;;;;;;;;5054892;28;20041;-75
2021/08/15 08:05:46;;;;;;;12.77;6.63;;;;;;;;;;5049776;28;20040;-84
2021/08/15 08:08:13;;;;;;;15.27;6.90;;;;;;;;;;5056629;28;20064;-76
2021/08/15 08:10:39;;;;;;;17.10;5.95;;;;;;;;;;5050332;28;20392;-85
2021/08/15 08:13:07;;;;;;;15.57;7.18;;;;;;;;;;5042165;28;20459;-86
2021/08/15 08:15:33;;;;;;;16.60;7.47;;;;;;;;;;5041436;28;20496;-87
2021/08/15 08:18:00;;;;;;;15.43;6.70;;;;;;;;;;5028995;28;20040;-85
2021/08/15 08:20:27;;;;;;;16.98;7.28;;;;;;;;;;5031550;28;20110;-86
2021/08/15 08:22:54;;;;;;;16.13;7.28;;;;;;;;;;5055990;28;20041;-86
2021/08/15 08:25:21;;;;;;;17.23;7.20;;;;;;;;;;5047117;28;20071;-86
2021/08/15 08:27:47;;;;;;;13.73;7.22;;;;;;;;;;5044485;28;20064;-86
2021/08/15 08:30:13;;;;;;;14.93;7.25;;;;;;;;;;5047041;28;20620;-86
2021/08/15 08:32:40;;;;;;;16.73;8.45;;;;;;;;;;5047339;28;20377;-86
2021/08/15 08:35:06;;;;;;;15.45;7.78;;;;;;;;;;5051265;28;20052;-86
2021/08/15 08:37:33;;;;;;;16.50;6.75;;;;;;;;;;5047625;28;20080;-86
2021/08/15 08:40:00;;;;;;;16.13;6.80;;;;;;;;;;5052506;28;20134;-86
2021/08/15 08:42:29;;;;;;;19.08;8.30;;;;;;;;;;5048626;28;20082;-85
2021/08/15 08:45:00;;;;;;;17.35;7.40;;;;;;;;;;5049060;28;20071;-86
2021/08/15 08:47:27;;;;;;;15.63;7.20;;;;;;;;;;5050080;28;20040;-86
2021/08/15 08:49:54;;;;;;;18.98;6.80;;;;;;;;;;5048938;28;20107;-86
2021/08/15 08:52:22;;;;;;;22.08;7.95;;;;;;;;;;5047543;28;20117;-86
2021/08/15 08:54:49;;;;;;;16.92;7.72;;;;;;;;;;5056859;28;20041;-86
2021/08/15 08:57:15;;;;;;;17.40;7.20;;;;;;;;;;5050352;28;20131;-86
2021/08/15 08:59:41;;;;;;;17.45;7.43;;;;;;;;;;5024344;28;20045;-86
2021/08/15 09:02:07;;;;;;;13.70;7.35;;;;;;;;;;5031446;28;20041;-86
2021/08/15 09:04:34;;;;;;;16.85;7.32;;;;;;;;;;5052068;28;20435;-86
2021/08/15 09:07:08;;;;;;;13.82;6.50;;;;;;;;;;5057853;28;20061;-85
2021/08/15 09:09:36;;;;;;;18.92;7.03;;;;;;;;;;5059888;28;20044;-86
2021/08/15 09:12:03;;;;;;;16.55;6.65;;;;;;;;;;5052116;28;20041;-86
2021/08/15 09:14:31;;;;;;;18.48;6.28;;;;;;;;;;5049631;28;20208;-86
2021/08/15 09:16:59;;;;;;;19.58;7.30;;;;;;;;;;5046273;28;20053;-82
2021/08/15 09:19:26;;;;;;;17.88;6.97;;;;;;;;;;5041183;28;20049;-86
2021/08/15 09:21:54;;;;;;;15.20;6.38;;;;;;;;;;5054628;28;20048;-86
2021/08/15 09:24:20;;;;;;;12.60;6.05;;;;;;;;;;5028763;28;20041;-85
2021/08/15 09:26:57;;;;;;;20.08;6.82;;;;;;;;;;5054964;28;20041;-85
2021/08/15 09:29:23;;;;;;;17.40;6.88;;;;;;;;;;5050465;28;20059;-85
2021/08/15 09:31:50;;;;;;;15.77;6.95;;;;;;;;;;5052969;28;20119;-86
2021/08/15 09:34:24;;;;;;;20.77;7.95;;;;;;;;;;5045942;28;20125;-86
2021/08/15 09:36:52;;;;;;;19.42;7.28;;;;;;;;;;5043295;28;20077;-85
2021/08/15 09:39:30;;;;;;;15.68;6.70;;;;;;;;;;5043334;28;20090;-88
2021/08/15 09:41:56;;;;;;;16.35;7.20;;;;;;;;;;5043568;28;20128;-86
2021/08/15 09:44:26;;;;;;;17.88;6.85;;;;;;;;;;5043235;28;20068;-87
2021/08/15 09:47:03;;;;;;;15.13;6.25;;;;;;;;;;5048195;28;20088;-91
2021/08/15 09:49:41;;;;;;;18.13;7.28;;;;;;;;;;5046238;28;20060;-92
2021/08/15 09:52:09;;;;;;;17.90;6.72;;;;;;;;;;5060340;28;20041;-91
2021/08/15 09:54:36;;;;;;;15.85;6.68;;;;;;;;;;5030719;28;20503;-86
2021/08/15 09:57:06;;;;;;;16.05;6.80;;;;;;;;;;5049096;28;20057;-86
2021/08/15 09:59:35;;;;;;;17.80;5.90;;;;;;;;;;5051038;28;20107;-86
2021/08/15 10:02:01;;;;;;;13.05;6.00;;;;;;;;;;5047739;28;20068;-86
2021/08/15 10:04:27;;;;;;;13.52;6.80;;;;;;;;;;5040688;28;20596;-87
2021/08/15 10:06:55;;;;;;;15.38;6.88;;;;;;;;;;5046764;28;20071;-86
2021/08/15 10:09:21;;;;;;;17.10;6.63;;;;;;;;;;5048025;28;20040;-87
2021/08/15 10:11:48;;;;;;;12.20;5.85;;;;;;;;;;5041164;28;20103;-87
2021/08/15 10:14:15;;;;;;;14.20;6.25;;;;;;;;;;5040377;28;20113;-88
2021/08/15 10:16:57;;;;;;;15.95;6.00;;;;;;;;;;5032101;28;20124;-88
2021/08/15 10:19:32;;;;;;;17.95;5.70;;;;;;;;;;5043640;28;20117;-88
2021/08/15 10:21:59;;;;;;;14.93;5.70;;;;;;;;;;5046596;28;20163;-88
2021/08/15 10:24:40;;;;;;;12.25;5.20;;;;;;;;;;5029997;28;20145;-89
2021/08/15 10:27:06;;;;;;;15.38;6.00;;;;;;;;;;5044535;28;20053;-88
2021/08/15 10:29:33;;;;;;;15.90;5.70;;;;;;;;;;5043301;28;20049;-88
2021/08/15 10:32:11;;;;;;;13.75;5.18;;;;;;;;;;5038844;28;20075;-89
2021/08/15 10:34:50;;;;;;;10.73;5.40;;;;;;;;;;5040896;28;20048;-89
2021/08/15 10:37:23;;;;;;;13.20;5.47;;;;;;;;;;5039100;28;20053;-89
2021/08/15 10:39:50;;;;;;;13.98;5.28;;;;;;;;;;5040049;28;20496;-88
2021/08/15 10:42:48;;;;;;;14.45;5.40;;;;;;;;;;5040023;28;20041;-88
2021/08/15 10:45:22;;;;;;;16.27;6.82;;;;;;;;;;5043398;28;20132;-87
2021/08/15 10:48:14;;;;;;;12.63;6.10;;;;;;;;;;5044829;28;20176;-88
2021/08/15 10:50:43;;;;;;;15.13;6.05;;;;;;;;;;5047456;28;20048;-87
2021/08/15 10:53:39;;;;;;;18.02;5.30;;;;;;;;;;5044821;28;20056;-88
2021/08/15 10:56:07;;;;;;;13.02;5.72;;;;;;;;;;5042929;28;20524;-87
2021/08/15 10:58:37;;;;;;;17.42;6.95;;;;;;;;;;5042005;28;20041;-88
2021/08/15 11:01:05;;;;;;;14.50;5.88;;;;;;;;;;5042679;28;20048;-88
2021/08/15 11:03:32;;;;;;;13.77;6.88;;;;;;;;;;5042164;28;20113;-88
2021/08/15 11:05:58;;;;;;;12.52;5.65;;;;;;;;;;5023940;28;20064;-87
2021/08/15 11:08:33;;;;;;;13.23;5.25;;;;;;;;;;5045918;28;20037;-90
2021/08/15 11:11:07;;;;;;;16.45;6.47;;;;;;;;;;5046884;28;20064;-86
2021/08/15 11:13:33;;;;;;;19.13;7.45;;;;;;;;;;5044891;28;20037;-86
2021/08/15 11:16:18;;;;;;;16.33;6.47;;;;;;;;;;5046511;28;20063;-86
2021/08/15 11:19:05;;;;;;;10.80;6.28;;;;;;;;;;5046303;28;20127;-87
2021/08/15 11:21:50;;;;;;;12.90;6.10;;;;;;;;;;5045582;28;20044;-86
2021/08/15 11:24:20;;;;;;;18.38;6.85;;;;;;;;;;5046865;28;20076;-85
2021/08/15 11:26:47;;;;;;;15.50;5.93;;;;;;;;;;5045665;28;20476;-86
2021/08/15 11:29:13;;;;;;;14.60;6.35;;;;;;;;;;5045606;28;20080;-86
2021/08/15 11:31:40;;;;;;;14.02;6.28;;;;;;;;;;5047749;28;20404;-86
2021/08/15 11:34:07;;;;;;;16.23;6.40;;;;;;;;;;5046674;28;20100;-87
2021/08/15 11:36:33;;;;;;;13.07;5.57;;;;;;;;;;5049139;28;20048;-86
2021/08/15 11:38:59;;;;;;;12.88;5.80;;;;;;;;;;5029761;28;20049;-86
2021/08/15 11:41:26;;;;;;;16.45;5.68;;;;;;;;;;5047761;28;20159;-86
2021/08/15 11:43:55;;;;;;;17.08;5.95;;;;;;;;;;5046239;28;20445;-86
2021/08/15 11:46:22;;;;;;;14.57;5.85;;;;;;;;;;5032261;28;20053;-86
2021/08/15 11:48:49;;;;;;;14.32;6.30;;;;;;;;;;5054299;28;20119;-86
2021/08/15 11:51:15;;;;;;;19.48;7.47;;;;;;;;;;5048588;28;20211;-86
2021/08/15 11:53:44;;;;;;;18.65;6.55;;;;;;;;;;5034281;28;20051;-85
2021/08/15 11:56:11;;;;;;;16.50;6.60;;;;;;;;;;5036977;28;20052;-86
2021/08/15 11:58:44;;;;;;;15.15;5.88;;;;;;;;;;5047092;28;20139;-86
2021/08/15 12:01:11;;;;;;;15.93;5.95;;;;;;;;;;5044204;28;20068;-86
2021/08/15 12:03:37;;;;;;;14.40;6.03;;;;;;;;;;5045002;28;20033;-86
2021/08/15 12:06:07;;;;;;;15.00;6.28;;;;;;;;;;5042191;28;20045;-86
2021/08/15 12:08:39;;;;;;;13.63;5.90;;;;;;;;;;5043233;28;20477;-86
2021/08/15 12:11:22;;;;;;;16.40;6.53;;;;;;;;;;5038825;28;20111;-86
2021/08/15 12:13:49;;;;;;;10.23;5.47;;;;;;;;;;5041886;28;20098;-86
2021/08/15 12:16:16;;;;;;;15.30;7.47;;;;;;;;;;5038816;28;20041;-85
2021/08/15 12:18:50;;;;;;;15.10;6.68;;;;;;;;;;5040007;28;20055;-86
2021/08/15 12:21:17;;;;;;;16.45;7.78;;;;;;;;;;5041028;28;20064;-86
2021/08/15 12:24:02;;;;;;;17.92;6.78;;;;;;;;;;5024977;28;20048;-86
2021/08/15 12:26:30;;;;;;;16.60;7.20;;;;;;;;;;5029660;28;20048;-86
2021/08/15 12:28:57;;;;;;;19.63;7.18;;;;;;;;;;5050347;28;20091;-82
2021/08/15 12:31:25;;;;;;;12.63;5.97;;;;;;;;;;5048096;28;20430;-86
2021/08/15 12:34:03;;;;;;;16.63;6.97;;;;;;;;;;5046585;28;20125;-86
2021/08/15 12:36:30;;;;;;;18.15;7.82;;;;;;;;;;5045676;28;20064;-85
2021/08/15 12:39:05;;;;;;;14.73;6.95;;;;;;;;;;5045538;28;20063;-83
2021/08/15 12:41:47;;;;;;;15.98;7.25;;;;;;;;;;5043951;28;20140;-83
2021/08/15 12:44:15;;;;;;;14.13;6.30;;;;;;;;;;5044839;28;20116;-85
2021/08/15 12:46:42;;;;;;;16.98;6.95;;;;;;;;;;5044304;28;20047;-85
2021/08/15 12:49:17;;;;;;;14.30;5.70;;;;;;;;;;5048632;28;20091;-85
2021/08/15 12:51:44;;;;;;;12.40;5.82;;;;;;;;;;5045615;28;20064;-84
2021/08/15 12:54:10;;;;;;;16.80;7.43;;;;;;;;;;5046768;28;20056;-85
2021/08/15 12:56:36;;;;;;;16.10;6.68;;;;;;;;;;5048847;28;20060;-84
2021/08/15 12:59:03;;;;;;;14.15;5.80;;;;;;;;;;5047363;28;21256;-84
2021/08/15 13:01:29;;;;;;;14.93;5.93;;;;;;;;;;5046879;28;20053;-85
2021/08/15 13:03:59;;;;;;;14.57;6.70;;;;;;;;;;5049589;28;20047;-84
2021/08/15 13:06:26;;;;;;;16.80;6.35;;;;;;;;;;5048736;28;20041;-86
2021/08/15 13:08:53;;;;;;;13.02;5.43;;;;;;;;;;5028615;28;20053;-85
2021/08/15 13:11:19;;;;;;;15.43;6.60;;;;;;;;;;5050792;28;20147;-85
2021/08/15 13:13:45;;;;;;;14.98;5.85;;;;;;;;;;5050735;28;20178;-84
2021/08/15 13:16:12;;;;;;;14.82;6.05;;;;;;;;;;5049536;28;20045;-85
2021/08/15 13:18:38;;;;;;;15.27;6.28;;;;;;;;;;5054565;28;20182;-85
2021/08/15 13:21:04;;;;;;;12.57;5.57;;;;;;;;;;5050221;28;20037;-85
2021/08/15 13:23:31;;;;;;;13.48;6.03;;;;;;;;;;5053803;28;20049;-84
2021/08/15 13:25:59;;;;;;;16.13;5.72;;;;;;;;;;5049754;28;20405;-84
2021/08/15 13:28:25;;;;;;;11.43;4.90;;;;;;;;;;5047725;28;20417;-84
2021/08/15 13:30:52;;;;;;;11.50;5.38;;;;;;;;;;5047139;28;20100;-84
2021/08/15 13:33:18;;;;;;;12.93;5.53;;;;;;;;;;5043920;28;20056;-84
2021/08/15 13:35:45;;;;;;;11.82;5.28;;;;;;;;;;5041730;28;20428;-85
2021/08/15 13:38:15;;;;;;;9.70;4.43;;;;;;;;;;5040980;28;20037;-85
2021/08/15 13:40:41;;;;;;;9.48;4.35;;;;;;;;;;5044470;28;20105;-84
2021/08/15 13:43:08;;;;;;;10.05;4.22;;;;;;;;;;5040582;28;20049;-85
2021/08/15 13:45:34;;;;;;;9.57;3.95;;;;;;;;;;5039610;28;20052;-84
2021/08/15 13:48:01;;;;;;;9.95;3.55;;;;;;;;;;5043401;28;20364;-84
2021/08/15 13:50:27;;;;;;;11.25;3.70;;;;;;;;;;5037012;28;20406;-84
2021/08/15 13:52:54;;;;;;;6.82;2.63;;;;;;;;;;5037488;28;20136;-84
2021/08/15 13:55:21;;;;;;;7.82;2.63;;;;;;;;;;5044151;28;20037;-84
2021/08/15 13:57:47;;;;;;;5.47;2.60;;;;;;;;;;5044902;28;20052;-85
2021/08/15 14:00:15;;;;;;;9.15;3.22;;;;;;;;;;5046309;28;20056;-85
2021/08/15 14:02:42;;;;;;;7.65;2.63;;;;;;;;;;5048665;28;20159;-84
2021/08/15 14:05:09;;;;;;;8.07;3.50;;;;;;;;;;5039916;28;20045;-85
2021/08/15 14:07:37;;;;;;;11.63;3.08;;;;;;;;;;5043196;28;20038;-84
2021/08/15 14:10:03;;;;;;;8.57;3.13;;;;;;;;;;5035864;28;20059;-84
2021/08/15 14:12:30;;;;;;;7.88;2.92;;;;;;;;;;5043362;28;20098;-84
2021/08/15 14:14:58;;;;;;;8.38;3.15;;;;;;;;;;5039439;28;20095;-84
2021/08/15 14:17:24;;;;;;;8.95;3.30;;;;;;;;;;5044231;28;20385;-84
2021/08/15 14:19:51;;;;;;;8.10;3.05;;;;;;;;;;5047591;28;20045;-84
2021/08/15 14:22:18;;;;;;;5.90;3.03;;;;;;;;;;5046042;28;20041;-84
2021/08/15 14:24:45;;;;;;;10.05;3.15;;;;;;;;;;5047293;28;20045;-84
2021/08/15 14:27:11;;;;;;;7.15;2.95;;;;;;;;;;5048597;28;20043;-84
2021/08/15 14:29:37;;;;;;;8.85;3.33;;;;;;;;;;5046994;28;20041;-84
2021/08/15 14:32:04;;;;;;;9.70;3.40;;;;;;;;;;5045839;28;20114;-84
2021/08/15 14:34:30;;;;;;;10.65;4.57;;;;;;;;;;5045207;28;20044;-84